Celandine — ONDN — position and weather

sailwx.info

Track history (hours):
 
Tides and Currents Weather Stations Pressure Air Temp Water Temp Dewpoint Dewpoint Depression Visibility Wind Speed Wind Dir Waves Ship Positions

Celandine

Last reported at 2015-May-30 11:31 UTC. Time now 2015-May-30 12:27 UTC.
Position N 57°41' E 011°52'.

Length 162 m; draft 6.3 m.

Type: Ship (hazmat cat A). MMSI: 205476000.

Date/timePositionNaut miles runAvg speedWind from/ knotsBaromVisibWave heightAir tempDewpointWater temp
2015-May-30 11:31N 57°41' E 011°52'0 0.0
2015-May-30 10:31N 57°41' E 011°52'0 0.0
2015-May-30 09:31N 57°41' E 011°52'0 0.0
2015-May-30 08:31N 57°41' E 011°52'0 0.0
2015-May-30 07:31N 57°41' E 011°52'0 0.0
2015-May-30 06:31N 57°41' E 011°52'0 0.0
2015-May-30 05:31N 57°41' E 011°52'2 2.0
2015-May-30 04:34N 57°41' E 011°49'1312.6
2015-May-30 03:33N 57°37' E 011°26'1211.6
2015-May-30 02:33N 57°37' E 011°05'1512.9
2015-May-30 01:24N 57°48' E 010°47'18714.5
2015-May-29 12:30N 55°39' E 006°40'1515.5
2015-May-29 11:33N 55°26' E 006°28'1815.6
2015-May-29 10:22N 55°08' E 006°17'6215.5
2015-May-29 06:22N 54°10' E 005°43'1214.7
2015-May-29 05:33N 53°59' E 005°33'1616.0
2015-May-29 04:33N 53°48' E 005°13'1616.3
2015-May-29 03:33N 53°37' E 004°53'1616.1
2015-May-29 02:32N 53°23' E 004°40'2217.0
2015-May-29 01:14N 53°03' E 004°24'1217.4
2015-May-29 00:33N 52°52' E 004°15'1917.2
2015-May-28 23:26N 52°39' E 003°52'1416.5
2015-May-28 22:33N 52°27' E 003°38'1717.3
2015-May-28 21:33N 52°11' E 003°29'1716.8
2015-May-28 20:34N 51°55' E 003°23'1616.2
2015-May-28 19:33N 51°41' E 003°09'1515.2
2015-May-28 18:33N 51°27' E 002°60'1010.4
2015-May-28 17:34N 51°21' E 003°13'0 0.0
2015-May-28 16:31N 51°21' E 003°13'0 0.0
2015-May-28 15:31N 51°21' E 003°13'0 0.0
2015-May-28 14:31N 51°21' E 003°13'0 0.0
2015-May-28 13:31N 51°21' E 003°13'0 0.0
2015-May-28 12:28N 51°21' E 003°13'0 0.0
2015-May-28 11:31N 51°21' E 003°13'0 0.0
2015-May-28 10:31N 51°21' E 003°13'0 0.0
2015-May-28 09:31N 51°21' E 003°13'0 0.0
2015-May-28 08:31N 51°21' E 003°13'5 4.9
2015-May-28 07:33N 51°24' E 003°08'10 9.9
2015-May-28 06:33N 51°34' E 003°08'1615.8
2015-May-28 05:32N 51°49' E 003°14'10915.6
2015-May-27 22:31N 53°27' E 004°34'1515.6
2015-May-27 21:32N 53°40' E 004°48'1716.8
2015-May-27 20:33N 53°50' E 005°11'1716.9
2015-May-27 19:33N 54°00' E 005°33'1615.5
2015-May-27 18:32N 54°14' E 005°45'6516.4
2015-May-27 14:33N 55°16' E 006°22'18915.2
2015-May-27 02:06N 57°41' E 010°03'1015.1
2015-May-27 01:24N 57°45' E 010°21'1314.9
2015-May-27 00:34N 57°48' E 010°44'1515.1
2015-May-26 23:34N 57°42' E 011°10'1515.5
2015-May-26 22:34N 57°36' E 011°37'10 9.6
2015-May-26 21:33N 57°41' E 011°52'0 0.0
2015-May-26 20:33N 57°41' E 011°52'0 0.0
2015-May-26 19:33N 57°41' E 011°52'0 0.0
2015-May-26 18:33N 57°41' E 011°52'0 0.0
2015-May-26 17:33N 57°41' E 011°52'0 0.0
2015-May-26 16:33N 57°41' E 011°52'0 0.0
2015-May-26 15:33N 57°41' E 011°52'0 0.0
2015-May-26 14:33N 57°41' E 011°52'0 0.0
2015-May-26 13:33N 57°41' E 011°52'0 0.0
2015-May-26 12:33N 57°41' E 011°52'0 0.0
2015-May-26 11:33N 57°41' E 011°52'0 0.0
2015-May-26 10:33N 57°41' E 011°52'0 0.0
2015-May-26 09:33N 57°41' E 011°52'0 0.0
2015-May-26 08:33N 57°41' E 011°52'0 0.0
2015-May-26 07:33N 57°41' E 011°52'0 0.0
2015-May-26 06:33N 57°41' E 011°52'1 0.5
2015-May-26 05:33N 57°41' E 011°51'5 5.1
2015-May-26 04:33N 57°41' E 011°42'0 0.0
2015-May-26 03:33N 57°41' E 011°42'0 0.0
2015-May-26 02:33N 57°41' E 011°42'0 0.0
2015-May-26 01:33N 57°41' E 011°42'0 0.0
2015-May-26 00:33N 57°41' E 011°42'0 0.0
2015-May-25 23:33N 57°41' E 011°42'0 0.0
2015-May-25 22:33N 57°41' E 011°42'0 0.0
2015-May-25 21:33N 57°41' E 011°42'0 0.0
2015-May-25 20:33N 57°41' E 011°42'0 0.0
2015-May-25 19:33N 57°41' E 011°42'0 0.0
2015-May-25 18:33N 57°41' E 011°42'0 0.0
2015-May-25 17:33N 57°41' E 011°42'0 0.0
2015-May-25 16:33N 57°41' E 011°42'4 4.1
2015-May-25 15:34N 57°41' E 011°49'2 1.7
2015-May-25 14:34N 57°41' E 011°52'0 0.0
2015-May-25 13:33N 57°41' E 011°52'0 0.0
2015-May-25 12:33N 57°41' E 011°52'0 0.0
2015-May-25 11:33N 57°41' E 011°52'0 0.0
2015-May-25 10:33N 57°41' E 011°52'0 0.0
2015-May-25 09:33N 57°41' E 011°52'0 0.0
2015-May-25 08:33N 57°41' E 011°52'0 0.0
2015-May-25 07:33N 57°41' E 011°52'0 0.0
2015-May-25 06:33N 57°41' E 011°52'0 0.0
2015-May-25 05:33N 57°41' E 011°52'0 0.0
2015-May-25 04:30N 57°41' E 011°52'0 0.0
2015-May-25 03:33N 57°41' E 011°52'0 0.0
2015-May-25 02:33N 57°41' E 011°52'0 0.0
2015-May-25 01:33N 57°41' E 011°52'0 0.0
2015-May-25 00:33N 57°41' E 011°52'0 0.0
2015-May-24 23:33N 57°41' E 011°52'0 0.0
2015-May-24 22:33N 57°41' E 011°52'0 0.0
2015-May-24 21:33N 57°41' E 011°52'0 0.0
2015-May-24 20:33N 57°41' E 011°52'0 0.0
2015-May-24 19:33N 57°41' E 011°52'0 0.0
2015-May-24 18:33N 57°41' E 011°52'0 0.0
2015-May-24 17:33N 57°41' E 011°52'0 0.0
2015-May-24 16:30N 57°41' E 011°52'0 0.0
2015-May-24 15:33N 57°41' E 011°52'0 0.0
2015-May-24 14:33N 57°41' E 011°52'0 0.0
2015-May-24 13:33N 57°41' E 011°52'0 0.0
2015-May-24 12:33N 57°41' E 011°52'0 0.0
2015-May-24 11:33N 57°41' E 011°52'1 0.5
2015-May-24 10:33N 57°41' E 011°51'1313.5
2015-May-24 09:34N 57°37' E 011°27'1414.0
2015-May-24 08:33N 57°39' E 011°01'1515.4
2015-May-24 07:34N 57°47' E 010°37'1716.7
2015-May-24 06:32N 57°43' E 010°06'1916.5
2015-May-24 05:22N 57°35' E 009°34'1516.2
2015-May-24 04:27N 57°29' E 009°08'1616.2
2015-May-24 03:27N 57°23' E 008°41'1516.1
2015-May-24 02:33N 57°15' E 008°18'1915.5
2015-May-24 01:18N 56°58' E 007°60'8915.5
2015-May-23 19:33N 55°41' E 006°41'1615.7
2015-May-23 18:33N 55°27' E 006°29'1515.4
2015-May-23 17:33N 55°12' E 006°20'6215.3
2015-May-23 13:32N 54°14' E 005°45'1414.9
2015-May-23 12:33N 54°01' E 005°35'1615.6
2015-May-23 11:33N 53°50' E 005°16'1615.8
2015-May-23 10:33N 53°39' E 004°56'1615.8
2015-May-23 09:34N 53°26' E 004°42'1616.4
2015-May-23 08:33N 53°11' E 004°30'1717.5
2015-May-23 07:34N 52°56' E 004°17'1717.2
2015-May-23 06:33N 52°42' E 004°00'2217.3
2015-May-23 05:15N 52°24' E 003°37'1217.7
2015-May-23 04:33N 52°13' E 003°31'1817.5
2015-May-23 03:33N 51°56' E 003°22'1716.7
2015-May-23 02:33N 51°42' E 003°07'1515.6
2015-May-23 01:34N 51°27' E 003°01'1010.0
2015-May-23 00:33N 51°21' E 003°13'0 0.0
2015-May-22 23:31N 51°21' E 003°13'0 0.0
2015-May-22 22:31N 51°21' E 003°13'0 0.0
2015-May-22 21:28N 51°21' E 003°13'0 0.0
2015-May-22 20:13N 51°21' E 003°13'0 0.0
2015-May-22 19:19N 51°21' E 003°13'0 0.0
2015-May-22 18:31N 51°21' E 003°13'0 0.0
2015-May-22 17:31N 51°21' E 003°13'0 0.0
2015-May-22 16:31N 51°21' E 003°13'0 0.0
2015-May-22 15:31N 51°21' E 003°13'2 2.1
2015-May-22 14:33N 51°22' E 003°11'1211.7
2015-May-22 13:33N 51°34' E 003°07'1716.7
2015-May-22 12:34N 51°50' E 003°13'1817.6
2015-May-22 11:33N 52°06' E 003°23'1818.0
2015-May-22 10:33N 52°23' E 003°34'1717.4
2015-May-22 09:34N 52°38' E 003°48'1616.2
2015-May-22 08:33N 52°53' E 003°59'1715.2
2015-May-22 07:26N 53°07' E 004°16'1414.3
2015-May-22 06:26N 53°19' E 004°30'1315.3
2015-May-22 05:33N 53°31' E 004°36'1616.2
2015-May-22 04:33N 53°43' E 004°56'1717.0
2015-May-22 03:33N 53°53' E 005°18'1716.8
2015-May-22 02:34N 54°04' E 005°40'1715.7
2015-May-22 01:29N 54°20' E 005°48'3816.3
2015-May-21 23:10N 54°56' E 006°10'1716.2
2015-May-21 22:09N 55°12' E 006°19'19115.1
2015-May-21 09:32N 57°39' E 009°58'1515.4
2015-May-21 08:34N 57°46' E 010°23'1514.7
2015-May-21 07:34N 57°47' E 010°51'1616.3
2015-May-21 06:34N 57°39' E 011°17'1414.1
2015-May-21 05:33N 57°39' E 011°44'5 5.0
2015-May-21 04:32N 57°41' E 011°52'0 0.0
2015-May-21 03:32N 57°41' E 011°52'0 0.0
2015-May-21 02:32N 57°41' E 011°52'0 0.0
2015-May-21 01:32N 57°41' E 011°52'0 0.0
2015-May-21 00:32N 57°41' E 011°52'0 0.0
2015-May-20 23:32N 57°41' E 011°52'0 0.0
2015-May-20 22:32N 57°41' E 011°52'0 0.0
2015-May-20 21:32N 57°41' E 011°52'0 0.0
2015-May-20 20:33N 57°41' E 011°52'9 9.0
2015-May-20 19:34N 57°37' E 011°38'1413.8
2015-May-20 18:34N 57°37' E 011°12'1212.3
2015-May-20 17:33N 57°43' E 010°52'1512.6
2015-May-20 16:24N 57°48' E 010°26'1415.7
2015-May-20 15:30N 57°42' E 010°02'  
Track history (hours):
 
Tides and Currents Weather Stations Pressure Air Temp Water Temp Dewpoint Dewpoint Depression Visibility Wind Speed Wind Dir Waves Ship Positions

Celandine

Last reported at 2015-May-30 11:31 UTC. Time now 2015-May-30 12:27 UTC.
Position N 57°41' E 011°52'.

Length 162 m; draft 6.3 m.

Type: Ship (hazmat cat A). MMSI: 205476000.

Date/timePositionNaut miles runAvg speedWind from/ knotsBaromVisibWave heightAir tempDewpointWater temp
2015-May-30 11:31N 57°41' E 011°52'0 0.0
2015-May-30 10:31N 57°41' E 011°52'0 0.0
2015-May-30 09:31N 57°41' E 011°52'0 0.0
2015-May-30 08:31N 57°41' E 011°52'0 0.0
2015-May-30 07:31N 57°41' E 011°52'0 0.0
2015-May-30 06:31N 57°41' E 011°52'0 0.0
2015-May-30 05:31N 57°41' E 011°52'2 2.0
2015-May-30 04:34N 57°41' E 011°49'1312.6
2015-May-30 03:33N 57°37' E 011°26'1211.6
2015-May-30 02:33N 57°37' E 011°05'1512.9
2015-May-30 01:24N 57°48' E 010°47'18714.5
2015-May-29 12:30N 55°39' E 006°40'1515.5
2015-May-29 11:33N 55°26' E 006°28'1815.6
2015-May-29 10:22N 55°08' E 006°17'6215.5
2015-May-29 06:22N 54°10' E 005°43'1214.7
2015-May-29 05:33N 53°59' E 005°33'1616.0
2015-May-29 04:33N 53°48' E 005°13'1616.3
2015-May-29 03:33N 53°37' E 004°53'1616.1
2015-May-29 02:32N 53°23' E 004°40'2217.0
2015-May-29 01:14N 53°03' E 004°24'1217.4
2015-May-29 00:33N 52°52' E 004°15'1917.2
2015-May-28 23:26N 52°39' E 003°52'1416.5
2015-May-28 22:33N 52°27' E 003°38'1717.3
2015-May-28 21:33N 52°11' E 003°29'1716.8
2015-May-28 20:34N 51°55' E 003°23'1616.2
2015-May-28 19:33N 51°41' E 003°09'1515.2
2015-May-28 18:33N 51°27' E 002°60'1010.4
2015-May-28 17:34N 51°21' E 003°13'0 0.0
2015-May-28 16:31N 51°21' E 003°13'0 0.0
2015-May-28 15:31N 51°21' E 003°13'0 0.0
2015-May-28 14:31N 51°21' E 003°13'0 0.0
2015-May-28 13:31N 51°21' E 003°13'0 0.0
2015-May-28 12:28N 51°21' E 003°13'0 0.0
2015-May-28 11:31N 51°21' E 003°13'0 0.0
2015-May-28 10:31N 51°21' E 003°13'0 0.0
2015-May-28 09:31N 51°21' E 003°13'0 0.0
2015-May-28 08:31N 51°21' E 003°13'5 4.9
2015-May-28 07:33N 51°24' E 003°08'10 9.9
2015-May-28 06:33N 51°34' E 003°08'1615.8
2015-May-28 05:32N 51°49' E 003°14'10915.6
2015-May-27 22:31N 53°27' E 004°34'1515.6
2015-May-27 21:32N 53°40' E 004°48'1716.8
2015-May-27 20:33N 53°50' E 005°11'1716.9
2015-May-27 19:33N 54°00' E 005°33'1615.5
2015-May-27 18:32N 54°14' E 005°45'6516.4
2015-May-27 14:33N 55°16' E 006°22'18915.2
2015-May-27 02:06N 57°41' E 010°03'1015.1
2015-May-27 01:24N 57°45' E 010°21'1314.9
2015-May-27 00:34N 57°48' E 010°44'1515.1
2015-May-26 23:34N 57°42' E 011°10'1515.5
2015-May-26 22:34N 57°36' E 011°37'10 9.6
2015-May-26 21:33N 57°41' E 011°52'0 0.0
2015-May-26 20:33N 57°41' E 011°52'0 0.0
2015-May-26 19:33N 57°41' E 011°52'0 0.0
2015-May-26 18:33N 57°41' E 011°52'0 0.0
2015-May-26 17:33N 57°41' E 011°52'0 0.0
2015-May-26 16:33N 57°41' E 011°52'0 0.0
2015-May-26 15:33N 57°41' E 011°52'0 0.0
2015-May-26 14:33N 57°41' E 011°52'0 0.0
2015-May-26 13:33N 57°41' E 011°52'0 0.0
2015-May-26 12:33N 57°41' E 011°52'0 0.0
2015-May-26 11:33N 57°41' E 011°52'0 0.0
2015-May-26 10:33N 57°41' E 011°52'0 0.0
2015-May-26 09:33N 57°41' E 011°52'0 0.0
2015-May-26 08:33N 57°41' E 011°52'0 0.0
2015-May-26 07:33N 57°41' E 011°52'0 0.0
2015-May-26 06:33N 57°41' E 011°52'1 0.5
2015-May-26 05:33N 57°41' E 011°51'5 5.1
2015-May-26 04:33N 57°41' E 011°42'0 0.0
2015-May-26 03:33N 57°41' E 011°42'0 0.0
2015-May-26 02:33N 57°41' E 011°42'0 0.0
2015-May-26 01:33N 57°41' E 011°42'0 0.0
2015-May-26 00:33N 57°41' E 011°42'0 0.0
2015-May-25 23:33N 57°41' E 011°42'0 0.0
2015-May-25 22:33N 57°41' E 011°42'0 0.0
2015-May-25 21:33N 57°41' E 011°42'0 0.0
2015-May-25 20:33N 57°41' E 011°42'0 0.0
2015-May-25 19:33N 57°41' E 011°42'0 0.0
2015-May-25 18:33N 57°41' E 011°42'0 0.0
2015-May-25 17:33N 57°41' E 011°42'0 0.0
2015-May-25 16:33N 57°41' E 011°42'4 4.1
2015-May-25 15:34N 57°41' E 011°49'2 1.7
2015-May-25 14:34N 57°41' E 011°52'0 0.0
2015-May-25 13:33N 57°41' E 011°52'0 0.0
2015-May-25 12:33N 57°41' E 011°52'0 0.0
2015-May-25 11:33N 57°41' E 011°52'0 0.0
2015-May-25 10:33N 57°41' E 011°52'0 0.0
2015-May-25 09:33N 57°41' E 011°52'0 0.0
2015-May-25 08:33N 57°41' E 011°52'0 0.0
2015-May-25 07:33N 57°41' E 011°52'0 0.0
2015-May-25 06:33N 57°41' E 011°52'0 0.0
2015-May-25 05:33N 57°41' E 011°52'0 0.0
2015-May-25 04:30N 57°41' E 011°52'0 0.0
2015-May-25 03:33N 57°41' E 011°52'0 0.0
2015-May-25 02:33N 57°41' E 011°52'0 0.0
2015-May-25 01:33N 57°41' E 011°52'0 0.0
2015-May-25 00:33N 57°41' E 011°52'0 0.0
2015-May-24 23:33N 57°41' E 011°52'0 0.0
2015-May-24 22:33N 57°41' E 011°52'0 0.0
2015-May-24 21:33N 57°41' E 011°52'0 0.0
2015-May-24 20:33N 57°41' E 011°52'0 0.0
2015-May-24 19:33N 57°41' E 011°52'0 0.0
2015-May-24 18:33N 57°41' E 011°52'0 0.0
2015-May-24 17:33N 57°41' E 011°52'0 0.0
2015-May-24 16:30N 57°41' E 011°52'0 0.0
2015-May-24 15:33N 57°41' E 011°52'0 0.0
2015-May-24 14:33N 57°41' E 011°52'0 0.0
2015-May-24 13:33N 57°41' E 011°52'0 0.0
2015-May-24 12:33N 57°41' E 011°52'0 0.0
2015-May-24 11:33N 57°41' E 011°52'1 0.5
2015-May-24 10:33N 57°41' E 011°51'1313.5
2015-May-24 09:34N 57°37' E 011°27'1414.0
2015-May-24 08:33N 57°39' E 011°01'1515.4
2015-May-24 07:34N 57°47' E 010°37'1716.7
2015-May-24 06:32N 57°43' E 010°06'1916.5
2015-May-24 05:22N 57°35' E 009°34'1516.2
2015-May-24 04:27N 57°29' E 009°08'1616.2
2015-May-24 03:27N 57°23' E 008°41'1516.1
2015-May-24 02:33N 57°15' E 008°18'1915.5
2015-May-24 01:18N 56°58' E 007°60'8915.5
2015-May-23 19:33N 55°41' E 006°41'1615.7
2015-May-23 18:33N 55°27' E 006°29'1515.4
2015-May-23 17:33N 55°12' E 006°20'6215.3
2015-May-23 13:32N 54°14' E 005°45'1414.9
2015-May-23 12:33N 54°01' E 005°35'1615.6
2015-May-23 11:33N 53°50' E 005°16'1615.8
2015-May-23 10:33N 53°39' E 004°56'1615.8
2015-May-23 09:34N 53°26' E 004°42'1616.4
2015-May-23 08:33N 53°11' E 004°30'1717.5
2015-May-23 07:34N 52°56' E 004°17'1717.2
2015-May-23 06:33N 52°42' E 004°00'2217.3
2015-May-23 05:15N 52°24' E 003°37'1217.7
2015-May-23 04:33N 52°13' E 003°31'1817.5
2015-May-23 03:33N 51°56' E 003°22'1716.7
2015-May-23 02:33N 51°42' E 003°07'1515.6
2015-May-23 01:34N 51°27' E 003°01'1010.0
2015-May-23 00:33N 51°21' E 003°13'0 0.0
2015-May-22 23:31N 51°21' E 003°13'0 0.0
2015-May-22 22:31N 51°21' E 003°13'0 0.0
2015-May-22 21:28N 51°21' E 003°13'0 0.0
2015-May-22 20:13N 51°21' E 003°13'0 0.0
2015-May-22 19:19N 51°21' E 003°13'0 0.0
2015-May-22 18:31N 51°21' E 003°13'0 0.0
2015-May-22 17:31N 51°21' E 003°13'0 0.0
2015-May-22 16:31N 51°21' E 003°13'0 0.0
2015-May-22 15:31N 51°21' E 003°13'2 2.1
2015-May-22 14:33N 51°22' E 003°11'1211.7
2015-May-22 13:33N 51°34' E 003°07'1716.7
2015-May-22 12:34N 51°50' E 003°13'1817.6
2015-May-22 11:33N 52°06' E 003°23'1818.0
2015-May-22 10:33N 52°23' E 003°34'1717.4
2015-May-22 09:34N 52°38' E 003°48'1616.2
2015-May-22 08:33N 52°53' E 003°59'1715.2
2015-May-22 07:26N 53°07' E 004°16'1414.3
2015-May-22 06:26N 53°19' E 004°30'1315.3
2015-May-22 05:33N 53°31' E 004°36'1616.2
2015-May-22 04:33N 53°43' E 004°56'1717.0
2015-May-22 03:33N 53°53' E 005°18'1716.8
2015-May-22 02:34N 54°04' E 005°40'1715.7
2015-May-22 01:29N 54°20' E 005°48'3816.3
2015-May-21 23:10N 54°56' E 006°10'1716.2
2015-May-21 22:09N 55°12' E 006°19'19115.1
2015-May-21 09:32N 57°39' E 009°58'1515.4
2015-May-21 08:34N 57°46' E 010°23'1514.7
2015-May-21 07:34N 57°47' E 010°51'1616.3
2015-May-21 06:34N 57°39' E 011°17'1414.1
2015-May-21 05:33N 57°39' E 011°44'5 5.0
2015-May-21 04:32N 57°41' E 011°52'0 0.0
2015-May-21 03:32N 57°41' E 011°52'0 0.0
2015-May-21 02:32N 57°41' E 011°52'0 0.0
2015-May-21 01:32N 57°41' E 011°52'0 0.0
2015-May-21 00:32N 57°41' E 011°52'0 0.0
2015-May-20 23:32N 57°41' E 011°52'0 0.0
2015-May-20 22:32N 57°41' E 011°52'0 0.0
2015-May-20 21:32N 57°41' E 011°52'0 0.0
2015-May-20 20:33N 57°41' E 011°52'9 9.0
2015-May-20 19:34N 57°37' E 011°38'1413.8
2015-May-20 18:34N 57°37' E 011°12'1212.3
2015-May-20 17:33N 57°43' E 010°52'1512.6
2015-May-20 16:24N 57°48' E 010°26'1415.7
2015-May-20 15:30N 57°42' E 010°02'  

Dump ship's entire track history